sensor_id;sensor_type;location;lat;lon;timestamp;temperature;humidity
20915;DHT22;10617;52.032;5.298;2023-10-31T00:00:55;10.80;99.90
20915;DHT22;10617;52.032;5.298;2023-10-31T00:04:56;10.70;99.90
20915;DHT22;10617;52.032;5.298;2023-10-31T00:08:58;10.70;99.90
20915;DHT22;10617;52.032;5.298;2023-10-31T00:13:00;10.70;99.90
20915;DHT22;10617;52.032;5.298;2023-10-31T00:17:01;10.70;99.90
20915;DHT22;10617;52.032;5.298;2023-10-31T00:21:03;10.70;99.90
20915;DHT22;10617;52.032;5.298;2023-10-31T00:25:05;10.70;99.90
20915;DHT22;10617;52.032;5.298;2023-10-31T00:29:07;10.70;99.90
20915;DHT22;10617;52.032;5.298;2023-10-31T00:33:09;10.80;99.90
20915;DHT22;10617;52.032;5.298;2023-10-31T00:37:11;10.80;99.90
20915;DHT22;10617;52.032;5.298;2023-10-31T00:41:12;10.80;99.90
20915;DHT22;10617;52.032;5.298;2023-10-31T00:45:14;10.80;99.90
20915;DHT22;10617;52.032;5.298;2023-10-31T00:49:15;10.80;99.90
20915;DHT22;10617;52.032;5.298;2023-10-31T00:53:17;10.80;99.90
20915;DHT22;10617;52.032;5.298;2023-10-31T00:57:19;10.80;99.90
20915;DHT22;10617;52.032;5.298;2023-10-31T01:01:20;10.80;99.90
20915;DHT22;10617;52.032;5.298;2023-10-31T01:05:22;10.70;99.90
20915;DHT22;10617;52.032;5.298;2023-10-31T01:09:24;10.70;99.90
20915;DHT22;10617;52.032;5.298;2023-10-31T01:13:25;10.70;99.90
20915;DHT22;10617;52.032;5.298;2023-10-31T01:17:27;10.60;99.90
20915;DHT22;10617;52.032;5.298;2023-10-31T01:21:28;10.60;99.90
20915;DHT22;10617;52.032;5.298;2023-10-31T01:25:30;10.70;99.90
20915;DHT22;10617;52.032;5.298;2023-10-31T01:29:32;10.70;99.90
20915;DHT22;10617;52.032;5.298;2023-10-31T01:33:34;10.60;99.90
20915;DHT22;10617;52.032;5.298;2023-10-31T01:37:36;10.60;99.90
20915;DHT22;10617;52.032;5.298;2023-10-31T01:41:40;10.60;99.90
20915;DHT22;10617;52.032;5.298;2023-10-31T01:45:42;10.60;99.90
20915;DHT22;10617;52.032;5.298;2023-10-31T01:49:44;10.60;99.90
20915;DHT22;10617;52.032;5.298;2023-10-31T01:53:45;10.70;99.90
20915;DHT22;10617;52.032;5.298;2023-10-31T01:57:48;10.70;99.90
20915;DHT22;10617;52.032;5.298;2023-10-31T02:01:50;10.70;99.90
20915;DHT22;10617;52.032;5.298;2023-10-31T02:05:52;10.60;99.90
20915;DHT22;10617;52.032;5.298;2023-10-31T02:09:54;10.60;99.90
20915;DHT22;10617;52.032;5.298;2023-10-31T02:13:55;10.50;99.90
20915;DHT22;10617;52.032;5.298;2023-10-31T02:17:57;10.50;99.90
20915;DHT22;10617;52.032;5.298;2023-10-31T02:21:58;10.50;99.90
20915;DHT22;10617;52.032;5.298;2023-10-31T02:26:01;10.50;99.90
20915;DHT22;10617;52.032;5.298;2023-10-31T02:30:05;10.50;99.90
20915;DHT22;10617;52.032;5.298;2023-10-31T02:34:06;10.50;99.90
20915;DHT22;10617;52.032;5.298;2023-10-31T02:38:08;10.50;99.90
20915;DHT22;10617;52.032;5.298;2023-10-31T02:42:10;10.60;99.90
20915;DHT22;10617;52.032;5.298;2023-10-31T02:46:11;10.60;99.90
20915;DHT22;10617;52.032;5.298;2023-10-31T02:50:15;10.60;99.90
20915;DHT22;10617;52.032;5.298;2023-10-31T02:54:16;10.60;99.90
20915;DHT22;10617;52.032;5.298;2023-10-31T02:58:18;10.60;99.90
20915;DHT22;10617;52.032;5.298;2023-10-31T03:02:20;10.60;99.90
20915;DHT22;10617;52.032;5.298;2023-10-31T03:06:21;10.60;99.90
20915;DHT22;10617;52.032;5.298;2023-10-31T03:10:23;10.60;99.90
20915;DHT22;10617;52.032;5.298;2023-10-31T03:14:25;10.70;99.90
20915;DHT22;10617;52.032;5.298;2023-10-31T03:18:26;10.70;99.90
20915;DHT22;10617;52.032;5.298;2023-10-31T03:22:28;10.70;99.90
20915;DHT22;10617;52.032;5.298;2023-10-31T03:26:29;10.60;99.90
20915;DHT22;10617;52.032;5.298;2023-10-31T03:30:31;10.60;99.90
20915;DHT22;10617;52.032;5.298;2023-10-31T03:34:33;10.60;99.90
20915;DHT22;10617;52.032;5.298;2023-10-31T03:38:35;10.60;99.90
20915;DHT22;10617;52.032;5.298;2023-10-31T03:42:37;10.60;99.90
20915;DHT22;10617;52.032;5.298;2023-10-31T03:46:38;10.60;99.90
20915;DHT22;10617;52.032;5.298;2023-10-31T03:50:40;10.60;99.90
20915;DHT22;10617;52.032;5.298;2023-10-31T03:54:42;10.60;99.90
20915;DHT22;10617;52.032;5.298;2023-10-31T03:58:43;10.60;99.90
20915;DHT22;10617;52.032;5.298;2023-10-31T04:02:45;10.60;99.90
20915;DHT22;10617;52.032;5.298;2023-10-31T04:06:47;10.60;99.90
20915;DHT22;10617;52.032;5.298;2023-10-31T04:10:48;10.60;99.90
20915;DHT22;10617;52.032;5.298;2023-10-31T04:14:50;10.60;99.90
20915;DHT22;10617;52.032;5.298;2023-10-31T04:18:52;10.60;99.90
20915;DHT22;10617;52.032;5.298;2023-10-31T04:22:53;10.60;99.90
20915;DHT22;10617;52.032;5.298;2023-10-31T04:26:55;10.50;99.90
20915;DHT22;10617;52.032;5.298;2023-10-31T04:30:57;10.50;99.90
20915;DHT22;10617;52.032;5.298;2023-10-31T04:34:58;10.40;99.90
20915;DHT22;10617;52.032;5.298;2023-10-31T04:39:00;10.40;99.90
20915;DHT22;10617;52.032;5.298;2023-10-31T04:53:09;10.40;99.90
20915;DHT22;10617;52.032;5.298;2023-10-31T04:57:11;10.40;99.90
20915;DHT22;10617;52.032;5.298;2023-10-31T05:01:13;10.40;99.90
20915;DHT22;10617;52.032;5.298;2023-10-31T05:14:54;10.30;99.90
20915;DHT22;10617;52.032;5.298;2023-10-31T05:18:56;10.20;99.90
20915;DHT22;10617;52.032;5.298;2023-10-31T05:23:01;10.20;99.90
20915;DHT22;10617;52.032;5.298;2023-10-31T05:27:03;10.20;99.90
20915;DHT22;10617;52.032;5.298;2023-10-31T05:31:05;10.20;99.90
20915;DHT22;10617;52.032;5.298;2023-10-31T05:35:06;10.20;99.90
20915;DHT22;10617;52.032;5.298;2023-10-31T05:39:08;10.20;99.90
20915;DHT22;10617;52.032;5.298;2023-10-31T05:43:11;10.20;99.90
20915;DHT22;10617;52.032;5.298;2023-10-31T05:47:12;10.10;99.90
20915;DHT22;10617;52.032;5.298;2023-10-31T05:51:15;10.10;99.90
20915;DHT22;10617;52.032;5.298;2023-10-31T05:55:17;10.10;99.90
20915;DHT22;10617;52.032;5.298;2023-10-31T05:59:19;10.10;99.90
20915;DHT22;10617;52.032;5.298;2023-10-31T06:03:21;10.10;99.90
20915;DHT22;10617;52.032;5.298;2023-10-31T06:12:26;10.00;99.90
20915;DHT22;10617;52.032;5.298;2023-10-31T06:16:28;10.00;99.90
20915;DHT22;10617;52.032;5.298;2023-10-31T06:20:30;10.00;99.90
20915;DHT22;10617;52.032;5.298;2023-10-31T06:24:32;10.00;99.90
20915;DHT22;10617;52.032;5.298;2023-10-31T06:28:34;10.00;99.90
20915;DHT22;10617;52.032;5.298;2023-10-31T06:32:41;10.00;99.90
20915;DHT22;10617;52.032;5.298;2023-10-31T06:36:43;10.10;99.90
20915;DHT22;10617;52.032;5.298;2023-10-31T06:40:45;10.00;99.90
20915;DHT22;10617;52.032;5.298;2023-10-31T06:59:57;10.00;99.90
20915;DHT22;10617;52.032;5.298;2023-10-31T07:03:58;10.00;99.90
20915;DHT22;10617;52.032;5.298;2023-10-31T07:08:01;10.00;99.90
20915;DHT22;10617;52.032;5.298;2023-10-31T07:12:04;10.10;99.90
20915;DHT22;10617;52.032;5.298;2023-10-31T07:16:06;10.00;99.90
20915;DHT22;10617;52.032;5.298;2023-10-31T07:20:07;10.10;99.90
20915;DHT22;10617;52.032;5.298;2023-10-31T07:24:09;10.10;99.90
20915;DHT22;10617;52.032;5.298;2023-10-31T07:28:11;10.20;99.90
20915;DHT22;10617;52.032;5.298;2023-10-31T07:32:12;10.20;99.90
20915;DHT22;10617;52.032;5.298;2023-10-31T07:36:14;10.20;99.90
20915;DHT22;10617;52.032;5.298;2023-10-31T07:40:16;10.30;99.90
20915;DHT22;10617;52.032;5.298;2023-10-31T07:44:17;10.30;99.90
20915;DHT22;10617;52.032;5.298;2023-10-31T07:48:19;10.40;99.90
20915;DHT22;10617;52.032;5.298;2023-10-31T07:52:21;10.50;99.90
20915;DHT22;10617;52.032;5.298;2023-10-31T07:56:22;10.60;99.90
20915;DHT22;10617;52.032;5.298;2023-10-31T08:00:26;10.70;99.90
20915;DHT22;10617;52.032;5.298;2023-10-31T08:04:28;10.80;99.90
20915;DHT22;10617;52.032;5.298;2023-10-31T08:08:31;11.00;99.90
20915;DHT22;10617;52.032;5.298;2023-10-31T08:12:32;11.10;99.90
20915;DHT22;10617;52.032;5.298;2023-10-31T08:16:34;11.10;99.90
20915;DHT22;10617;52.032;5.298;2023-10-31T08:20:36;11.10;99.90
20915;DHT22;10617;52.032;5.298;2023-10-31T08:24:38;11.20;99.90
20915;DHT22;10617;52.032;5.298;2023-10-31T08:28:40;11.30;99.90
20915;DHT22;10617;52.032;5.298;2023-10-31T08:32:42;11.60;99.90
20915;DHT22;10617;52.032;5.298;2023-10-31T08:36:44;11.80;99.90
20915;DHT22;10617;52.032;5.298;2023-10-31T08:40:45;11.80;99.90
20915;DHT22;10617;52.032;5.298;2023-10-31T08:44:48;11.80;99.90
20915;DHT22;10617;52.032;5.298;2023-10-31T08:48:50;11.70;99.90
20915;DHT22;10617;52.032;5.298;2023-10-31T08:52:51;11.70;99.90
20915;DHT22;10617;52.032;5.298;2023-10-31T08:56:53;11.80;99.90
20915;DHT22;10617;52.032;5.298;2023-10-31T09:00:55;11.90;99.90
20915;DHT22;10617;52.032;5.298;2023-10-31T09:04:56;12.10;99.90
20915;DHT22;10617;52.032;5.298;2023-10-31T09:08:58;12.40;99.90
20915;DHT22;10617;52.032;5.298;2023-10-31T09:13:00;12.70;99.90
20915;DHT22;10617;52.032;5.298;2023-10-31T09:17:02;12.70;99.90
20915;DHT22;10617;52.032;5.298;2023-10-31T09:21:04;12.70;99.90
20915;DHT22;10617;52.032;5.298;2023-10-31T09:25:05;12.80;99.90
20915;DHT22;10617;52.032;5.298;2023-10-31T09:29:08;13.00;99.90
20915;DHT22;10617;52.032;5.298;2023-10-31T09:33:16;13.00;99.90
20915;DHT22;10617;52.032;5.298;2023-10-31T09:37:18;13.00;99.90
20915;DHT22;10617;52.032;5.298;2023-10-31T09:41:20;13.10;99.90
20915;DHT22;10617;52.032;5.298;2023-10-31T09:45:21;13.10;99.90
20915;DHT22;10617;52.032;5.298;2023-10-31T09:49:23;13.20;99.90
20915;DHT22;10617;52.032;5.298;2023-10-31T09:53:25;13.30;99.90
20915;DHT22;10617;52.032;5.298;2023-10-31T09:57:27;13.30;99.90
20915;DHT22;10617;52.032;5.298;2023-10-31T10:01:28;13.40;99.90
20915;DHT22;10617;52.032;5.298;2023-10-31T10:05:31;13.60;99.90
20915;DHT22;10617;52.032;5.298;2023-10-31T10:09:32;13.90;99.90
20915;DHT22;10617;52.032;5.298;2023-10-31T10:13:34;13.80;99.90
20915;DHT22;10617;52.032;5.298;2023-10-31T10:17:36;13.60;99.90
20915;DHT22;10617;52.032;5.298;2023-10-31T10:21:54;13.40;99.90
20915;DHT22;10617;52.032;5.298;2023-10-31T10:25:56;13.60;99.90
20915;DHT22;10617;52.032;5.298;2023-10-31T10:29:58;14.30;99.90
20915;DHT22;10617;52.032;5.298;2023-10-31T10:34:00;14.90;99.90
20915;DHT22;10617;52.032;5.298;2023-10-31T10:38:03;15.00;99.90
20915;DHT22;10617;52.032;5.298;2023-10-31T10:42:10;15.10;99.90
20915;DHT22;10617;52.032;5.298;2023-10-31T10:46:13;15.20;99.90
20915;DHT22;10617;52.032;5.298;2023-10-31T10:50:19;15.50;99.90
20915;DHT22;10617;52.032;5.298;2023-10-31T10:58:52;16.00;99.90
20915;DHT22;10617;52.032;5.298;2023-10-31T11:02:56;16.10;99.90
20915;DHT22;10617;52.032;5.298;2023-10-31T11:06:58;16.30;99.90
20915;DHT22;10617;52.032;5.298;2023-10-31T11:11:00;16.50;99.90
20915;DHT22;10617;52.032;5.298;2023-10-31T11:15:02;16.60;99.90
20915;DHT22;10617;52.032;5.298;2023-10-31T11:19:04;16.50;99.90
20915;DHT22;10617;52.032;5.298;2023-10-31T11:23:06;16.50;99.90
20915;DHT22;10617;52.032;5.298;2023-10-31T11:27:08;16.30;99.90
20915;DHT22;10617;52.032;5.298;2023-10-31T11:31:10;16.10;99.90
20915;DHT22;10617;52.032;5.298;2023-10-31T11:35:12;15.40;99.90
20915;DHT22;10617;52.032;5.298;2023-10-31T11:39:14;14.90;99.90
20915;DHT22;10617;52.032;5.298;2023-10-31T11:43:17;14.60;99.90
20915;DHT22;10617;52.032;5.298;2023-10-31T11:47:18;14.30;99.90
20915;DHT22;10617;52.032;5.298;2023-10-31T11:51:20;14.10;99.90
20915;DHT22;10617;52.032;5.298;2023-10-31T11:55:21;13.80;99.90
20915;DHT22;10617;52.032;5.298;2023-10-31T11:59:23;13.60;99.90
20915;DHT22;10617;52.032;5.298;2023-10-31T12:03:25;13.40;99.90
20915;DHT22;10617;52.032;5.298;2023-10-31T12:07:26;13.30;99.90
20915;DHT22;10617;52.032;5.298;2023-10-31T12:11:28;13.30;99.90
20915;DHT22;10617;52.032;5.298;2023-10-31T12:15:30;13.20;99.90
20915;DHT22;10617;52.032;5.298;2023-10-31T12:19:32;13.20;99.90
20915;DHT22;10617;52.032;5.298;2023-10-31T12:23:34;13.10;99.90
20915;DHT22;10617;52.032;5.298;2023-10-31T12:27:48;13.00;99.90
20915;DHT22;10617;52.032;5.298;2023-10-31T12:31:52;12.80;99.90
20915;DHT22;10617;52.032;5.298;2023-10-31T12:35:58;12.80;99.90
20915;DHT22;10617;52.032;5.298;2023-10-31T12:40:00;12.90;99.90
20915;DHT22;10617;52.032;5.298;2023-10-31T12:44:05;13.00;99.90
20915;DHT22;10617;52.032;5.298;2023-10-31T12:48:08;13.10;99.90
20915;DHT22;10617;52.032;5.298;2023-10-31T12:52:10;13.10;99.90
20915;DHT22;10617;52.032;5.298;2023-10-31T12:56:33;13.10;99.90
20915;DHT22;10617;52.032;5.298;2023-10-31T13:00:35;13.20;99.90
20915;DHT22;10617;52.032;5.298;2023-10-31T13:04:37;13.30;99.90
20915;DHT22;10617;52.032;5.298;2023-10-31T13:08:39;13.30;99.90
20915;DHT22;10617;52.032;5.298;2023-10-31T13:12:47;13.40;99.90
20915;DHT22;10617;52.032;5.298;2023-10-31T13:16:48;13.40;99.90
20915;DHT22;10617;52.032;5.298;2023-10-31T13:20:50;13.30;99.90
20915;DHT22;10617;52.032;5.298;2023-10-31T13:24:52;13.30;99.90
20915;DHT22;10617;52.032;5.298;2023-10-31T13:28:53;13.30;99.90
20915;DHT22;10617;52.032;5.298;2023-10-31T13:32:55;13.20;99.90
20915;DHT22;10617;52.032;5.298;2023-10-31T13:36:58;13.20;99.90
20915;DHT22;10617;52.032;5.298;2023-10-31T13:41:00;13.10;99.90
20915;DHT22;10617;52.032;5.298;2023-10-31T13:45:03;13.00;99.90
20915;DHT22;10617;52.032;5.298;2023-10-31T13:49:07;13.00;99.90
20915;DHT22;10617;52.032;5.298;2023-10-31T13:53:09;13.00;99.90
20915;DHT22;10617;52.032;5.298;2023-10-31T13:57:10;13.00;99.90
20915;DHT22;10617;52.032;5.298;2023-10-31T14:01:12;13.10;99.90
20915;DHT22;10617;52.032;5.298;2023-10-31T14:05:14;13.10;99.90
20915;DHT22;10617;52.032;5.298;2023-10-31T14:09:18;13.10;99.90
20915;DHT22;10617;52.032;5.298;2023-10-31T14:13:20;13.10;99.90
20915;DHT22;10617;52.032;5.298;2023-10-31T14:17:22;13.00;99.90
20915;DHT22;10617;52.032;5.298;2023-10-31T14:21:24;13.10;99.90
20915;DHT22;10617;52.032;5.298;2023-10-31T14:25:27;13.10;99.90
20915;DHT22;10617;52.032;5.298;2023-10-31T14:29:28;13.10;99.90
20915;DHT22;10617;52.032;5.298;2023-10-31T14:33:30;12.90;99.90
20915;DHT22;10617;52.032;5.298;2023-10-31T14:37:32;12.70;99.90
20915;DHT22;10617;52.032;5.298;2023-10-31T14:41:34;12.50;99.90
20915;DHT22;10617;52.032;5.298;2023-10-31T14:45:36;12.50;99.90
20915;DHT22;10617;52.032;5.298;2023-10-31T14:49:38;12.40;99.90
20915;DHT22;10617;52.032;5.298;2023-10-31T14:53:40;12.30;99.90
20915;DHT22;10617;52.032;5.298;2023-10-31T14:57:42;12.30;99.90
20915;DHT22;10617;52.032;5.298;2023-10-31T15:01:43;12.30;99.90
20915;DHT22;10617;52.032;5.298;2023-10-31T15:05:45;12.30;99.90
20915;DHT22;10617;52.032;5.298;2023-10-31T15:09:47;12.20;99.90
20915;DHT22;10617;52.032;5.298;2023-10-31T15:13:51;12.10;99.90
20915;DHT22;10617;52.032;5.298;2023-10-31T15:17:53;12.10;99.90
20915;DHT22;10617;52.032;5.298;2023-10-31T15:21:55;12.00;99.90
20915;DHT22;10617;52.032;5.298;2023-10-31T15:25:56;11.90;99.90
20915;DHT22;10617;52.032;5.298;2023-10-31T15:30:02;11.90;99.90
20915;DHT22;10617;52.032;5.298;2023-10-31T15:34:04;11.90;99.90
20915;DHT22;10617;52.032;5.298;2023-10-31T15:38:06;11.90;99.90
20915;DHT22;10617;52.032;5.298;2023-10-31T15:42:08;11.90;99.90
20915;DHT22;10617;52.032;5.298;2023-10-31T15:46:10;11.80;99.90
20915;DHT22;10617;52.032;5.298;2023-10-31T15:50:12;11.70;99.90
20915;DHT22;10617;52.032;5.298;2023-10-31T15:54:14;11.70;99.90
20915;DHT22;10617;52.032;5.298;2023-10-31T15:58:15;11.70;99.90
20915;DHT22;10617;52.032;5.298;2023-10-31T16:02:17;11.70;99.90
20915;DHT22;10617;52.032;5.298;2023-10-31T16:06:19;11.70;99.90
20915;DHT22;10617;52.032;5.298;2023-10-31T16:10:21;11.80;99.90
20915;DHT22;10617;52.032;5.298;2023-10-31T16:14:23;11.80;99.90
20915;DHT22;10617;52.032;5.298;2023-10-31T16:18:26;11.80;99.90
20915;DHT22;10617;52.032;5.298;2023-10-31T16:22:27;11.80;99.90
20915;DHT22;10617;52.032;5.298;2023-10-31T16:26:29;11.80;99.90
20915;DHT22;10617;52.032;5.298;2023-10-31T16:30:31;11.80;99.90
20915;DHT22;10617;52.032;5.298;2023-10-31T16:34:33;11.80;99.90
20915;DHT22;10617;52.032;5.298;2023-10-31T16:38:34;11.80;99.90
20915;DHT22;10617;52.032;5.298;2023-10-31T16:42:36;11.90;99.90
20915;DHT22;10617;52.032;5.298;2023-10-31T16:46:45;11.90;99.90
20915;DHT22;10617;52.032;5.298;2023-10-31T16:50:47;11.90;99.90
20915;DHT22;10617;52.032;5.298;2023-10-31T16:54:49;11.90;99.90
20915;DHT22;10617;52.032;5.298;2023-10-31T16:58:51;11.90;99.90
20915;DHT22;10617;52.032;5.298;2023-10-31T17:02:52;11.80;99.90
20915;DHT22;10617;52.032;5.298;2023-10-31T17:06:54;11.80;99.90
20915;DHT22;10617;52.032;5.298;2023-10-31T17:10:56;11.80;99.90
20915;DHT22;10617;52.032;5.298;2023-10-31T17:20:01;11.80;99.90
20915;DHT22;10617;52.032;5.298;2023-10-31T17:24:06;11.80;99.90
20915;DHT22;10617;52.032;5.298;2023-10-31T17:28:07;11.80;99.90
20915;DHT22;10617;52.032;5.298;2023-10-31T17:32:09;11.80;99.90
20915;DHT22;10617;52.032;5.298;2023-10-31T17:36:17;11.80;99.90
20915;DHT22;10617;52.032;5.298;2023-10-31T17:40:20;11.80;99.90
20915;DHT22;10617;52.032;5.298;2023-10-31T17:44:23;11.70;99.90
20915;DHT22;10617;52.032;5.298;2023-10-31T17:48:26;11.80;99.90
20915;DHT22;10617;52.032;5.298;2023-10-31T17:52:27;11.80;99.90
20915;DHT22;10617;52.032;5.298;2023-10-31T17:56:29;11.80;99.90
20915;DHT22;10617;52.032;5.298;2023-10-31T18:00:30;11.80;99.90
20915;DHT22;10617;52.032;5.298;2023-10-31T18:04:32;11.80;99.90
20915;DHT22;10617;52.032;5.298;2023-10-31T18:08:34;11.80;99.90
20915;DHT22;10617;52.032;5.298;2023-10-31T18:12:36;11.80;99.90
20915;DHT22;10617;52.032;5.298;2023-10-31T18:16:38;11.90;99.90
20915;DHT22;10617;52.032;5.298;2023-10-31T18:20:39;11.90;99.90
20915;DHT22;10617;52.032;5.298;2023-10-31T18:24:41;11.90;99.90
20915;DHT22;10617;52.032;5.298;2023-10-31T18:28:44;11.90;99.90
20915;DHT22;10617;52.032;5.298;2023-10-31T18:32:45;11.90;99.90
20915;DHT22;10617;52.032;5.298;2023-10-31T18:36:47;12.00;99.90
20915;DHT22;10617;52.032;5.298;2023-10-31T18:40:49;12.00;99.90
20915;DHT22;10617;52.032;5.298;2023-10-31T18:44:50;12.00;99.90
20915;DHT22;10617;52.032;5.298;2023-10-31T18:48:55;12.00;99.90
20915;DHT22;10617;52.032;5.298;2023-10-31T18:52:57;12.00;99.90
20915;DHT22;10617;52.032;5.298;2023-10-31T18:56:58;12.00;99.90
20915;DHT22;10617;52.032;5.298;2023-10-31T19:01:00;12.00;99.90
20915;DHT22;10617;52.032;5.298;2023-10-31T19:05:02;12.00;99.90
20915;DHT22;10617;52.032;5.298;2023-10-31T19:09:05;12.00;99.90
20915;DHT22;10617;52.032;5.298;2023-10-31T19:13:07;12.00;99.90
20915;DHT22;10617;52.032;5.298;2023-10-31T19:17:09;12.00;99.90
20915;DHT22;10617;52.032;5.298;2023-10-31T19:21:10;11.90;99.90
20915;DHT22;10617;52.032;5.298;2023-10-31T19:25:12;12.00;99.90
20915;DHT22;10617;52.032;5.298;2023-10-31T19:29:14;12.00;99.90
20915;DHT22;10617;52.032;5.298;2023-10-31T19:33:16;12.00;99.90
20915;DHT22;10617;52.032;5.298;2023-10-31T19:37:18;12.00;99.90
20915;DHT22;10617;52.032;5.298;2023-10-31T19:41:19;12.00;99.90
20915;DHT22;10617;52.032;5.298;2023-10-31T19:45:21;12.00;99.90
20915;DHT22;10617;52.032;5.298;2023-10-31T19:49:23;12.00;99.90
20915;DHT22;10617;52.032;5.298;2023-10-31T19:53:24;12.00;99.90
20915;DHT22;10617;52.032;5.298;2023-10-31T19:57:27;12.00;99.90
20915;DHT22;10617;52.032;5.298;2023-10-31T20:01:29;12.00;99.90
20915;DHT22;10617;52.032;5.298;2023-10-31T20:05:31;12.00;99.90
20915;DHT22;10617;52.032;5.298;2023-10-31T20:09:33;12.00;99.90
20915;DHT22;10617;52.032;5.298;2023-10-31T20:13:34;11.90;99.90
20915;DHT22;10617;52.032;5.298;2023-10-31T20:17:36;11.90;99.90
20915;DHT22;10617;52.032;5.298;2023-10-31T20:21:38;11.80;99.90
20915;DHT22;10617;52.032;5.298;2023-10-31T20:25:40;11.70;99.90
20915;DHT22;10617;52.032;5.298;2023-10-31T20:29:42;11.70;99.90
20915;DHT22;10617;52.032;5.298;2023-10-31T20:33:44;11.70;99.90
20915;DHT22;10617;52.032;5.298;2023-10-31T20:37:46;11.60;99.90
20915;DHT22;10617;52.032;5.298;2023-10-31T20:41:47;11.60;99.90
20915;DHT22;10617;52.032;5.298;2023-10-31T20:45:49;11.50;99.90
20915;DHT22;10617;52.032;5.298;2023-10-31T20:49:50;11.60;99.90
20915;DHT22;10617;52.032;5.298;2023-10-31T20:53:54;11.60;99.90
20915;DHT22;10617;52.032;5.298;2023-10-31T20:57:56;11.60;99.90
20915;DHT22;10617;52.032;5.298;2023-10-31T21:01:58;11.60;99.90
20915;DHT22;10617;52.032;5.298;2023-10-31T21:06:00;11.60;99.90
20915;DHT22;10617;52.032;5.298;2023-10-31T21:10:02;11.60;99.90
20915;DHT22;10617;52.032;5.298;2023-10-31T21:14:03;11.60;99.90
20915;DHT22;10617;52.032;5.298;2023-10-31T21:18:06;11.60;99.90
20915;DHT22;10617;52.032;5.298;2023-10-31T21:22:09;11.60;99.90
20915;DHT22;10617;52.032;5.298;2023-10-31T21:26:11;11.60;99.90
20915;DHT22;10617;52.032;5.298;2023-10-31T21:30:13;11.60;99.90
20915;DHT22;10617;52.032;5.298;2023-10-31T21:34:14;11.70;99.90
20915;DHT22;10617;52.032;5.298;2023-10-31T21:38:17;11.80;99.90
20915;DHT22;10617;52.032;5.298;2023-10-31T21:42:18;11.80;99.90
20915;DHT22;10617;52.032;5.298;2023-10-31T21:46:20;11.80;99.90
20915;DHT22;10617;52.032;5.298;2023-10-31T21:50:22;11.80;99.90
20915;DHT22;10617;52.032;5.298;2023-10-31T21:54:23;11.80;99.90
20915;DHT22;10617;52.032;5.298;2023-10-31T21:58:26;11.90;99.90
20915;DHT22;10617;52.032;5.298;2023-10-31T22:02:28;11.90;99.90
20915;DHT22;10617;52.032;5.298;2023-10-31T22:06:30;11.90;99.90
20915;DHT22;10617;52.032;5.298;2023-10-31T22:10:32;11.90;99.90
20915;DHT22;10617;52.032;5.298;2023-10-31T22:14:34;11.90;99.90
20915;DHT22;10617;52.032;5.298;2023-10-31T22:18:35;11.80;99.90
20915;DHT22;10617;52.032;5.298;2023-10-31T22:22:37;11.80;99.90
20915;DHT22;10617;52.032;5.298;2023-10-31T22:26:38;11.80;99.90
20915;DHT22;10617;52.032;5.298;2023-10-31T22:30:40;11.80;99.90
20915;DHT22;10617;52.032;5.298;2023-10-31T22:34:42;11.80;99.90
20915;DHT22;10617;52.032;5.298;2023-10-31T22:38:43;11.80;99.90
20915;DHT22;10617;52.032;5.298;2023-10-31T22:42:45;11.80;99.90
20915;DHT22;10617;52.032;5.298;2023-10-31T22:46:48;11.80;99.90
20915;DHT22;10617;52.032;5.298;2023-10-31T22:50:49;11.80;99.90
20915;DHT22;10617;52.032;5.298;2023-10-31T22:54:51;11.80;99.90
20915;DHT22;10617;52.032;5.298;2023-10-31T22:58:52;11.90;99.90
20915;DHT22;10617;52.032;5.298;2023-10-31T23:02:54;11.90;99.90
20915;DHT22;10617;52.032;5.298;2023-10-31T23:06:56;11.90;99.90
20915;DHT22;10617;52.032;5.298;2023-10-31T23:10:58;11.90;99.90
20915;DHT22;10617;52.032;5.298;2023-10-31T23:15:00;11.90;99.90
20915;DHT22;10617;52.032;5.298;2023-10-31T23:19:02;11.90;99.90
20915;DHT22;10617;52.032;5.298;2023-10-31T23:23:04;11.90;99.90
20915;DHT22;10617;52.032;5.298;2023-10-31T23:27:07;11.90;99.90
20915;DHT22;10617;52.032;5.298;2023-10-31T23:31:08;11.90;99.90
20915;DHT22;10617;52.032;5.298;2023-10-31T23:35:10;11.90;99.90
20915;DHT22;10617;52.032;5.298;2023-10-31T23:39:12;11.90;99.90
20915;DHT22;10617;52.032;5.298;2023-10-31T23:43:13;11.90;99.90
20915;DHT22;10617;52.032;5.298;2023-10-31T23:47:15;11.90;99.90
20915;DHT22;10617;52.032;5.298;2023-10-31T23:51:20;11.90;99.90
20915;DHT22;10617;52.032;5.298;2023-10-31T23:55:24;11.80;99.90
20915;DHT22;10617;52.032;5.298;2023-10-31T23:59:26;11.80;99.90
